<?xml version="1.0" encoding="UTF-8"?>
<gpx version="1.1" creator="https://www.youtrack.es" xsi:schemaLocation="http://www.topografix.com/GPX/1/1 http://www.topografix.com/GPX/1/1/gpx.xsd http://www.garmin.com/xmlschemas/GpxExtensions/v3 http://www.garmin.com/xmlschemas/GpxExtensionsv3.xsd http://www.garmin.com/xmlschemas/TrackPointExtension/v1 http://www.garmin.com/xmlschemas/TrackPointExtensionv1.xsd" xmlns:gpxtpx="http://www.garmin.com/xmlschemas/TrackPointExtension/v1" xmlns:gpxx="http://www.garmin.com/xmlschemas/GpxExtensions/v3" xmlns:xsi="http://www.w3.org/2001/XMLSchema-instance">
  <metadata>
    <link href="https://www.youtrack.es">
      <text>YouTrack.es</text>
    </link>
    <time>2026-05-08T06:44:03Z</time>
  </metadata>
  <trk>
    <src>https://www.youtrack.es</src>
    <link href="https://www.youtrack.es/ruta/1235-union">
      <text>YouTrack.es</text>
    </link>
    <trkseg>
      <trkpt lat="37.315216" lon="-6.00238">
        <ele>62.0</ele>
        <time>2018-07-06T06:05:18Z</time>
      </trkpt>
      <trkpt lat="37.315216" lon="-6.00238">
        <ele>57.0</ele>
        <time>2018-07-06T06:05:21Z</time>
      </trkpt>
      <trkpt lat="37.315119" lon="-6.002539">
        <ele>58.0</ele>
        <time>2018-07-06T06:05:30Z</time>
      </trkpt>
      <trkpt lat="37.315103" lon="-6.002695">
        <ele>57.0</ele>
        <time>2018-07-06T06:05:39Z</time>
      </trkpt>
      <trkpt lat="37.315034" lon="-6.002873">
        <ele>57.0</ele>
        <time>2018-07-06T06:05:49Z</time>
      </trkpt>
      <trkpt lat="37.314986" lon="-6.003029">
        <ele>57.0</ele>
        <time>2018-07-06T06:05:59Z</time>
      </trkpt>
      <trkpt lat="37.31495" lon="-6.003332">
        <ele>57.0</ele>
        <time>2018-07-06T06:06:14Z</time>
      </trkpt>
      <trkpt lat="37.314952" lon="-6.003523">
        <ele>58.0</ele>
        <time>2018-07-06T06:06:26Z</time>
      </trkpt>
      <trkpt lat="37.31501" lon="-6.003674">
        <ele>61.0</ele>
        <time>2018-07-06T06:06:34Z</time>
      </trkpt>
      <trkpt lat="37.315139" lon="-6.004046">
        <ele>59.0</ele>
        <time>2018-07-06T06:06:51Z</time>
      </trkpt>
      <trkpt lat="37.315149" lon="-6.004112">
        <ele>60.0</ele>
        <time>2018-07-06T06:06:54Z</time>
      </trkpt>
      <trkpt lat="37.315149" lon="-6.004112">
        <ele>60.0</ele>
        <time>2018-07-06T06:07:00Z</time>
      </trkpt>
      <trkpt lat="37.315149" lon="-6.004112">
        <ele>59.0</ele>
        <time>2018-07-06T06:07:03Z</time>
      </trkpt>
      <trkpt lat="37.315166" lon="-6.00427">
        <ele>58.0</ele>
        <time>2018-07-06T06:07:03Z</time>
      </trkpt>
      <trkpt lat="37.315182" lon="-6.004316">
        <ele>60.0</ele>
        <time>2018-07-06T06:07:05Z</time>
      </trkpt>
      <trkpt lat="37.315182" lon="-6.004316">
        <ele>59.0</ele>
        <time>2018-07-06T06:07:11Z</time>
      </trkpt>
      <trkpt lat="37.315182" lon="-6.004316">
        <ele>59.0</ele>
        <time>2018-07-06T06:07:14Z</time>
      </trkpt>
      <trkpt lat="37.315202" lon="-6.004658">
        <ele>59.0</ele>
        <time>2018-07-06T06:07:22Z</time>
      </trkpt>
      <trkpt lat="37.315151" lon="-6.004865">
        <ele>60.0</ele>
        <time>2018-07-06T06:07:34Z</time>
      </trkpt>
      <trkpt lat="37.315148" lon="-6.005126">
        <ele>60.0</ele>
        <time>2018-07-06T06:07:45Z</time>
      </trkpt>
      <trkpt lat="37.315158" lon="-6.005307">
        <ele>60.0</ele>
        <time>2018-07-06T06:07:54Z</time>
      </trkpt>
      <trkpt lat="37.315176" lon="-6.005451">
        <ele>59.0</ele>
        <time>2018-07-06T06:08:01Z</time>
      </trkpt>
      <trkpt lat="37.315163" lon="-6.00573">
        <ele>61.0</ele>
        <time>2018-07-06T06:08:14Z</time>
      </trkpt>
      <trkpt lat="37.315186" lon="-6.005819">
        <ele>61.0</ele>
        <time>2018-07-06T06:08:17Z</time>
      </trkpt>
      <trkpt lat="37.315186" lon="-6.005819">
        <ele>60.0</ele>
        <time>2018-07-06T06:08:22Z</time>
      </trkpt>
      <trkpt lat="37.315186" lon="-6.005819">
        <ele>60.0</ele>
        <time>2018-07-06T06:08:24Z</time>
      </trkpt>
      <trkpt lat="37.3152" lon="-6.005937">
        <ele>60.0</ele>
        <time>2018-07-06T06:08:24Z</time>
      </trkpt>
      <trkpt lat="37.31524" lon="-6.006118">
        <ele>59.0</ele>
        <time>2018-07-06T06:08:36Z</time>
      </trkpt>
      <trkpt lat="37.315302" lon="-6.006345">
        <ele>58.0</ele>
        <time>2018-07-06T06:08:49Z</time>
      </trkpt>
      <trkpt lat="37.315436" lon="-6.006662">
        <ele>59.0</ele>
        <time>2018-07-06T06:09:04Z</time>
      </trkpt>
      <trkpt lat="37.315454" lon="-6.006744">
        <ele>60.0</ele>
        <time>2018-07-06T06:09:09Z</time>
      </trkpt>
      <trkpt lat="37.315454" lon="-6.006744">
        <ele>59.0</ele>
        <time>2018-07-06T06:09:15Z</time>
      </trkpt>
      <trkpt lat="37.315454" lon="-6.006744">
        <ele>58.0</ele>
        <time>2018-07-06T06:09:18Z</time>
      </trkpt>
      <trkpt lat="37.315557" lon="-6.007018">
        <ele>58.0</ele>
        <time>2018-07-06T06:09:24Z</time>
      </trkpt>
      <trkpt lat="37.315586" lon="-6.007147">
        <ele>58.0</ele>
        <time>2018-07-06T06:09:31Z</time>
      </trkpt>
      <trkpt lat="37.315624" lon="-6.00729">
        <ele>54.0</ele>
        <time>2018-07-06T06:09:36Z</time>
      </trkpt>
      <trkpt lat="37.315646" lon="-6.00744">
        <ele>56.0</ele>
        <time>2018-07-06T06:09:46Z</time>
      </trkpt>
      <trkpt lat="37.315642" lon="-6.007901">
        <ele>55.0</ele>
        <time>2018-07-06T06:10:07Z</time>
      </trkpt>
      <trkpt lat="37.315486" lon="-6.008212">
        <ele>58.0</ele>
        <time>2018-07-06T06:10:24Z</time>
      </trkpt>
      <trkpt lat="37.315473" lon="-6.008351">
        <ele>58.0</ele>
        <time>2018-07-06T06:10:30Z</time>
      </trkpt>
      <trkpt lat="37.315419" lon="-6.00853">
        <ele>61.0</ele>
        <time>2018-07-06T06:10:42Z</time>
      </trkpt>
      <trkpt lat="37.315314" lon="-6.008908">
        <ele>61.0</ele>
        <time>2018-07-06T06:10:58Z</time>
      </trkpt>
      <trkpt lat="37.315314" lon="-6.008908">
        <ele>59.0</ele>
        <time>2018-07-06T06:11:03Z</time>
      </trkpt>
      <trkpt lat="37.315314" lon="-6.008908">
        <ele>58.0</ele>
        <time>2018-07-06T06:11:04Z</time>
      </trkpt>
      <trkpt lat="37.315314" lon="-6.008908">
        <ele>58.0</ele>
        <time>2018-07-06T06:11:07Z</time>
      </trkpt>
      <trkpt lat="37.315197" lon="-6.00914">
        <ele>59.0</ele>
        <time>2018-07-06T06:11:11Z</time>
      </trkpt>
      <trkpt lat="37.315067" lon="-6.009313">
        <ele>59.0</ele>
        <time>2018-07-06T06:11:23Z</time>
      </trkpt>
      <trkpt lat="37.31498" lon="-6.009452">
        <ele>55.0</ele>
        <time>2018-07-06T06:11:32Z</time>
      </trkpt>
      <trkpt lat="37.314762" lon="-6.009591">
        <ele>58.0</ele>
        <time>2018-07-06T06:11:47Z</time>
      </trkpt>
      <trkpt lat="37.314566" lon="-6.009749">
        <ele>60.0</ele>
        <time>2018-07-06T06:11:59Z</time>
      </trkpt>
      <trkpt lat="37.314509" lon="-6.009805">
        <ele>59.0</ele>
        <time>2018-07-06T06:12:06Z</time>
      </trkpt>
      <trkpt lat="37.314396" lon="-6.009934">
        <ele>59.0</ele>
        <time>2018-07-06T06:12:15Z</time>
      </trkpt>
      <trkpt lat="37.314233" lon="-6.010089">
        <ele>60.0</ele>
        <time>2018-07-06T06:12:25Z</time>
      </trkpt>
      <trkpt lat="37.314132" lon="-6.01009">
        <ele>59.0</ele>
        <time>2018-07-06T06:12:31Z</time>
      </trkpt>
      <trkpt lat="37.313959" lon="-6.010194">
        <ele>57.0</ele>
        <time>2018-07-06T06:12:41Z</time>
      </trkpt>
      <trkpt lat="37.313895" lon="-6.010262">
        <ele>57.0</ele>
        <time>2018-07-06T06:12:47Z</time>
      </trkpt>
      <trkpt lat="37.31376" lon="-6.010362">
        <ele>57.0</ele>
        <time>2018-07-06T06:12:57Z</time>
      </trkpt>
      <trkpt lat="37.313698" lon="-6.010399">
        <ele>58.0</ele>
        <time>2018-07-06T06:13:02Z</time>
      </trkpt>
      <trkpt lat="37.313434" lon="-6.010578">
        <ele>55.0</ele>
        <time>2018-07-06T06:13:17Z</time>
      </trkpt>
      <trkpt lat="37.313352" lon="-6.010655">
        <ele>57.0</ele>
        <time>2018-07-06T06:13:22Z</time>
      </trkpt>
      <trkpt lat="37.313352" lon="-6.010655">
        <ele>60.0</ele>
        <time>2018-07-06T06:13:30Z</time>
      </trkpt>
      <trkpt lat="37.313352" lon="-6.010655">
        <ele>58.0</ele>
        <time>2018-07-06T06:13:32Z</time>
      </trkpt>
      <trkpt lat="37.313264" lon="-6.010728">
        <ele>59.0</ele>
        <time>2018-07-06T06:13:32Z</time>
      </trkpt>
      <trkpt lat="37.313164" lon="-6.010798">
        <ele>59.0</ele>
        <time>2018-07-06T06:13:38Z</time>
      </trkpt>
      <trkpt lat="37.313004" lon="-6.010941">
        <ele>59.0</ele>
        <time>2018-07-06T06:13:47Z</time>
      </trkpt>
      <trkpt lat="37.31277" lon="-6.011012">
        <ele>64.0</ele>
        <time>2018-07-06T06:14:04Z</time>
      </trkpt>
      <trkpt lat="37.312508" lon="-6.01111">
        <ele>61.0</ele>
        <time>2018-07-06T06:14:20Z</time>
      </trkpt>
      <trkpt lat="37.312282" lon="-6.011202">
        <ele>61.0</ele>
        <time>2018-07-06T06:14:35Z</time>
      </trkpt>
      <trkpt lat="37.311998" lon="-6.011246">
        <ele>61.0</ele>
        <time>2018-07-06T06:14:52Z</time>
      </trkpt>
      <trkpt lat="37.311754" lon="-6.011325">
        <ele>60.0</ele>
        <time>2018-07-06T06:15:03Z</time>
      </trkpt>
      <trkpt lat="37.311754" lon="-6.011325">
        <ele>58.0</ele>
        <time>2018-07-06T06:15:11Z</time>
      </trkpt>
      <trkpt lat="37.311754" lon="-6.011325">
        <ele>60.0</ele>
        <time>2018-07-06T06:15:14Z</time>
      </trkpt>
      <trkpt lat="37.311674" lon="-6.011335">
        <ele>59.0</ele>
        <time>2018-07-06T06:15:14Z</time>
      </trkpt>
      <trkpt lat="37.311413" lon="-6.011383">
        <ele>63.0</ele>
        <time>2018-07-06T06:15:24Z</time>
      </trkpt>
      <trkpt lat="37.311283" lon="-6.011427">
        <ele>66.0</ele>
        <time>2018-07-06T06:15:30Z</time>
      </trkpt>
      <trkpt lat="37.311176" lon="-6.01149">
        <ele>64.0</ele>
        <time>2018-07-06T06:15:40Z</time>
      </trkpt>
      <trkpt lat="37.31093" lon="-6.011548">
        <ele>65.0</ele>
        <time>2018-07-06T06:15:53Z</time>
      </trkpt>
      <trkpt lat="37.310775" lon="-6.011577">
        <ele>62.0</ele>
        <time>2018-07-06T06:16:03Z</time>
      </trkpt>
      <trkpt lat="37.310673" lon="-6.011584">
        <ele>61.0</ele>
        <time>2018-07-06T06:16:11Z</time>
      </trkpt>
      <trkpt lat="37.310542" lon="-6.011625">
        <ele>61.0</ele>
        <time>2018-07-06T06:16:18Z</time>
      </trkpt>
      <trkpt lat="37.310408" lon="-6.011639">
        <ele>61.0</ele>
        <time>2018-07-06T06:16:27Z</time>
      </trkpt>
      <trkpt lat="37.310246" lon="-6.011718">
        <ele>60.0</ele>
        <time>2018-07-06T06:16:37Z</time>
      </trkpt>
      <trkpt lat="37.310139" lon="-6.011768">
        <ele>60.0</ele>
        <time>2018-07-06T06:16:43Z</time>
      </trkpt>
      <trkpt lat="37.309987" lon="-6.011782">
        <ele>60.0</ele>
        <time>2018-07-06T06:16:52Z</time>
      </trkpt>
      <trkpt lat="37.309794" lon="-6.01182">
        <ele>57.0</ele>
        <time>2018-07-06T06:17:06Z</time>
      </trkpt>
      <trkpt lat="37.309546" lon="-6.011869">
        <ele>58.0</ele>
        <time>2018-07-06T06:17:20Z</time>
      </trkpt>
      <trkpt lat="37.309467" lon="-6.011902">
        <ele>57.0</ele>
        <time>2018-07-06T06:17:27Z</time>
      </trkpt>
      <trkpt lat="37.309326" lon="-6.011928">
        <ele>57.0</ele>
        <time>2018-07-06T06:17:34Z</time>
      </trkpt>
      <trkpt lat="37.309156" lon="-6.011936">
        <ele>57.0</ele>
        <time>2018-07-06T06:17:45Z</time>
      </trkpt>
      <trkpt lat="37.308913" lon="-6.011897">
        <ele>60.0</ele>
        <time>2018-07-06T06:18:01Z</time>
      </trkpt>
      <trkpt lat="37.308727" lon="-6.01187">
        <ele>57.0</ele>
        <time>2018-07-06T06:18:14Z</time>
      </trkpt>
      <trkpt lat="37.308458" lon="-6.011739">
        <ele>59.0</ele>
        <time>2018-07-06T06:18:28Z</time>
      </trkpt>
      <trkpt lat="37.308248" lon="-6.011596">
        <ele>61.0</ele>
        <time>2018-07-06T06:18:42Z</time>
      </trkpt>
      <trkpt lat="37.308048" lon="-6.011451">
        <ele>61.0</ele>
        <time>2018-07-06T06:19:00Z</time>
      </trkpt>
      <trkpt lat="37.307908" lon="-6.011369">
        <ele>59.0</ele>
        <time>2018-07-06T06:19:08Z</time>
      </trkpt>
      <trkpt lat="37.307737" lon="-6.011411">
        <ele>59.0</ele>
        <time>2018-07-06T06:19:27Z</time>
      </trkpt>
      <trkpt lat="37.307631" lon="-6.011744">
        <ele>59.0</ele>
        <time>2018-07-06T06:19:44Z</time>
      </trkpt>
      <trkpt lat="37.307427" lon="-6.011972">
        <ele>60.0</ele>
        <time>2018-07-06T06:20:00Z</time>
      </trkpt>
      <trkpt lat="37.307195" lon="-6.012225">
        <ele>59.0</ele>
        <time>2018-07-06T06:20:16Z</time>
      </trkpt>
      <trkpt lat="37.307008" lon="-6.012314">
        <ele>59.0</ele>
        <time>2018-07-06T06:20:26Z</time>
      </trkpt>
      <trkpt lat="37.306952" lon="-6.012449">
        <ele>59.0</ele>
        <time>2018-07-06T06:20:37Z</time>
      </trkpt>
      <trkpt lat="37.306732" lon="-6.012565">
        <ele>58.0</ele>
        <time>2018-07-06T06:20:49Z</time>
      </trkpt>
      <trkpt lat="37.30665" lon="-6.012673">
        <ele>58.0</ele>
        <time>2018-07-06T06:20:58Z</time>
      </trkpt>
      <trkpt lat="37.306429" lon="-6.012833">
        <ele>59.0</ele>
        <time>2018-07-06T06:21:13Z</time>
      </trkpt>
      <trkpt lat="37.306287" lon="-6.012951">
        <ele>59.0</ele>
        <time>2018-07-06T06:21:23Z</time>
      </trkpt>
      <trkpt lat="37.306106" lon="-6.012969">
        <ele>60.0</ele>
        <time>2018-07-06T06:21:36Z</time>
      </trkpt>
      <trkpt lat="37.305909" lon="-6.012976">
        <ele>60.0</ele>
        <time>2018-07-06T06:21:47Z</time>
      </trkpt>
      <trkpt lat="37.30576" lon="-6.013">
        <ele>59.0</ele>
        <time>2018-07-06T06:21:55Z</time>
      </trkpt>
      <trkpt lat="37.305597" lon="-6.01302">
        <ele>60.0</ele>
        <time>2018-07-06T06:22:06Z</time>
      </trkpt>
      <trkpt lat="37.305368" lon="-6.013012">
        <ele>57.0</ele>
        <time>2018-07-06T06:22:17Z</time>
      </trkpt>
      <trkpt lat="37.305273" lon="-6.013001">
        <ele>55.0</ele>
        <time>2018-07-06T06:22:23Z</time>
      </trkpt>
      <trkpt lat="37.305139" lon="-6.013093">
        <ele>59.0</ele>
        <time>2018-07-06T06:22:34Z</time>
      </trkpt>
      <trkpt lat="37.305118" lon="-6.013317">
        <ele>60.0</ele>
        <time>2018-07-06T06:22:43Z</time>
      </trkpt>
      <trkpt lat="37.305199" lon="-6.013452">
        <ele>61.0</ele>
        <time>2018-07-06T06:22:51Z</time>
      </trkpt>
      <trkpt lat="37.305199" lon="-6.013452">
        <ele>61.0</ele>
        <time>2018-07-06T06:22:57Z</time>
      </trkpt>
      <trkpt lat="37.305199" lon="-6.013452">
        <ele>60.0</ele>
        <time>2018-07-06T06:22:57Z</time>
      </trkpt>
      <trkpt lat="37.305199" lon="-6.013452">
        <ele>59.0</ele>
        <time>2018-07-06T06:23:00Z</time>
      </trkpt>
      <trkpt lat="37.305234" lon="-6.013609">
        <ele>62.0</ele>
        <time>2018-07-06T06:23:00Z</time>
      </trkpt>
      <trkpt lat="37.305227" lon="-6.013666">
        <ele>63.0</ele>
        <time>2018-07-06T06:23:02Z</time>
      </trkpt>
      <trkpt lat="37.305227" lon="-6.013666">
        <ele>63.0</ele>
        <time>2018-07-06T06:23:07Z</time>
      </trkpt>
      <trkpt lat="37.305227" lon="-6.013666">
        <ele>61.0</ele>
        <time>2018-07-06T06:23:11Z</time>
      </trkpt>
      <trkpt lat="37.30512" lon="-6.013744">
        <ele>63.0</ele>
        <time>2018-07-06T06:23:11Z</time>
      </trkpt>
      <trkpt lat="37.304975" lon="-6.013734">
        <ele>60.0</ele>
        <time>2018-07-06T06:23:18Z</time>
      </trkpt>
      <trkpt lat="37.304826" lon="-6.013796">
        <ele>59.0</ele>
        <time>2018-07-06T06:23:29Z</time>
      </trkpt>
      <trkpt lat="37.304783" lon="-6.013597">
        <ele>58.0</ele>
        <time>2018-07-06T06:23:42Z</time>
      </trkpt>
      <trkpt lat="37.304675" lon="-6.013365">
        <ele>59.0</ele>
        <time>2018-07-06T06:23:55Z</time>
      </trkpt>
      <trkpt lat="37.304534" lon="-6.013005">
        <ele>60.0</ele>
        <time>2018-07-06T06:24:15Z</time>
      </trkpt>
      <trkpt lat="37.304451" lon="-6.012748">
        <ele>60.0</ele>
        <time>2018-07-06T06:24:27Z</time>
      </trkpt>
      <trkpt lat="37.304331" lon="-6.012389">
        <ele>60.0</ele>
        <time>2018-07-06T06:24:46Z</time>
      </trkpt>
      <trkpt lat="37.304284" lon="-6.012109">
        <ele>59.0</ele>
        <time>2018-07-06T06:25:02Z</time>
      </trkpt>
      <trkpt lat="37.304494" lon="-6.011792">
        <ele>60.0</ele>
        <time>2018-07-06T06:25:18Z</time>
      </trkpt>
      <trkpt lat="37.304591" lon="-6.011657">
        <ele>57.0</ele>
        <time>2018-07-06T06:25:29Z</time>
      </trkpt>
      <trkpt lat="37.304564" lon="-6.011293">
        <ele>55.0</ele>
        <time>2018-07-06T06:25:49Z</time>
      </trkpt>
      <trkpt lat="37.304521" lon="-6.010944">
        <ele>58.0</ele>
        <time>2018-07-06T06:26:08Z</time>
      </trkpt>
      <trkpt lat="37.304499" lon="-6.010702">
        <ele>57.0</ele>
        <time>2018-07-06T06:26:19Z</time>
      </trkpt>
      <trkpt lat="37.304475" lon="-6.010432">
        <ele>53.0</ele>
        <time>2018-07-06T06:26:32Z</time>
      </trkpt>
      <trkpt lat="37.304446" lon="-6.009936">
        <ele>53.0</ele>
        <time>2018-07-06T06:26:53Z</time>
      </trkpt>
      <trkpt lat="37.30446" lon="-6.009731">
        <ele>55.0</ele>
        <time>2018-07-06T06:27:02Z</time>
      </trkpt>
      <trkpt lat="37.304458" lon="-6.00959">
        <ele>59.0</ele>
        <time>2018-07-06T06:27:10Z</time>
      </trkpt>
      <trkpt lat="37.304458" lon="-6.009383">
        <ele>59.0</ele>
        <time>2018-07-06T06:27:19Z</time>
      </trkpt>
      <trkpt lat="37.304482" lon="-6.009221">
        <ele>60.0</ele>
        <time>2018-07-06T06:27:25Z</time>
      </trkpt>
      <trkpt lat="37.304537" lon="-6.008944">
        <ele>58.0</ele>
        <time>2018-07-06T06:27:41Z</time>
      </trkpt>
      <trkpt lat="37.304602" lon="-6.008625">
        <ele>58.0</ele>
        <time>2018-07-06T06:27:58Z</time>
      </trkpt>
      <trkpt lat="37.304706" lon="-6.008234">
        <ele>57.0</ele>
        <time>2018-07-06T06:28:18Z</time>
      </trkpt>
      <trkpt lat="37.304828" lon="-6.007838">
        <ele>56.0</ele>
        <time>2018-07-06T06:28:38Z</time>
      </trkpt>
      <trkpt lat="37.304845" lon="-6.007529">
        <ele>56.0</ele>
        <time>2018-07-06T06:28:55Z</time>
      </trkpt>
      <trkpt lat="37.304748" lon="-6.007375">
        <ele>56.0</ele>
        <time>2018-07-06T06:29:01Z</time>
      </trkpt>
      <trkpt lat="37.30467" lon="-6.007243">
        <ele>62.0</ele>
        <time>2018-07-06T06:29:09Z</time>
      </trkpt>
      <trkpt lat="37.30461" lon="-6.007156">
        <ele>59.0</ele>
        <time>2018-07-06T06:29:17Z</time>
      </trkpt>
      <trkpt lat="37.30453" lon="-6.00706">
        <ele>56.0</ele>
        <time>2018-07-06T06:29:24Z</time>
      </trkpt>
      <trkpt lat="37.304365" lon="-6.00683">
        <ele>56.0</ele>
        <time>2018-07-06T06:29:39Z</time>
      </trkpt>
      <trkpt lat="37.304289" lon="-6.006625">
        <ele>53.0</ele>
        <time>2018-07-06T06:29:49Z</time>
      </trkpt>
      <trkpt lat="37.304222" lon="-6.006467">
        <ele>51.0</ele>
        <time>2018-07-06T06:29:59Z</time>
      </trkpt>
      <trkpt lat="37.304068" lon="-6.006159">
        <ele>52.0</ele>
        <time>2018-07-06T06:30:16Z</time>
      </trkpt>
      <trkpt lat="37.303998" lon="-6.005852">
        <ele>54.0</ele>
        <time>2018-07-06T06:30:29Z</time>
      </trkpt>
      <trkpt lat="37.303949" lon="-6.005552">
        <ele>54.0</ele>
        <time>2018-07-06T06:30:41Z</time>
      </trkpt>
      <trkpt lat="37.303903" lon="-6.005391">
        <ele>54.0</ele>
        <time>2018-07-06T06:30:54Z</time>
      </trkpt>
      <trkpt lat="37.303856" lon="-6.005178">
        <ele>53.0</ele>
        <time>2018-07-06T06:31:03Z</time>
      </trkpt>
      <trkpt lat="37.303808" lon="-6.00491">
        <ele>55.0</ele>
        <time>2018-07-06T06:31:13Z</time>
      </trkpt>
      <trkpt lat="37.303792" lon="-6.004858">
        <ele>54.0</ele>
        <time>2018-07-06T06:31:15Z</time>
      </trkpt>
      <trkpt lat="37.303792" lon="-6.004858">
        <ele>55.0</ele>
        <time>2018-07-06T06:31:21Z</time>
      </trkpt>
      <trkpt lat="37.303792" lon="-6.004858">
        <ele>55.0</ele>
        <time>2018-07-06T06:31:24Z</time>
      </trkpt>
      <trkpt lat="37.303747" lon="-6.004729">
        <ele>53.0</ele>
        <time>2018-07-06T06:31:24Z</time>
      </trkpt>
      <trkpt lat="37.303747" lon="-6.004729">
        <ele>54.0</ele>
        <time>2018-07-06T06:31:30Z</time>
      </trkpt>
      <trkpt lat="37.303747" lon="-6.004729">
        <ele>56.0</ele>
        <time>2018-07-06T06:31:30Z</time>
      </trkpt>
      <trkpt lat="37.303747" lon="-6.004729">
        <ele>54.0</ele>
        <time>2018-07-06T06:31:33Z</time>
      </trkpt>
      <trkpt lat="37.303702" lon="-6.004419">
        <ele>53.0</ele>
        <time>2018-07-06T06:31:40Z</time>
      </trkpt>
      <trkpt lat="37.303655" lon="-6.004186">
        <ele>53.0</ele>
        <time>2018-07-06T06:31:51Z</time>
      </trkpt>
      <trkpt lat="37.303667" lon="-6.004023">
        <ele>54.0</ele>
        <time>2018-07-06T06:32:01Z</time>
      </trkpt>
      <trkpt lat="37.303667" lon="-6.004023">
        <ele>59.0</ele>
        <time>2018-07-06T06:32:08Z</time>
      </trkpt>
      <trkpt lat="37.303667" lon="-6.004023">
        <ele>57.0</ele>
        <time>2018-07-06T06:32:09Z</time>
      </trkpt>
      <trkpt lat="37.303667" lon="-6.004023">
        <ele>57.0</ele>
        <time>2018-07-06T06:32:37Z</time>
      </trkpt>
      <trkpt lat="37.303515" lon="-6.003951">
        <ele>58.0</ele>
        <time>2018-07-06T06:32:37Z</time>
      </trkpt>
      <trkpt lat="37.303504" lon="-6.003769">
        <ele>55.0</ele>
        <time>2018-07-06T06:32:48Z</time>
      </trkpt>
      <trkpt lat="37.303487" lon="-6.003463">
        <ele>57.0</ele>
        <time>2018-07-06T06:33:00Z</time>
      </trkpt>
      <trkpt lat="37.303485" lon="-6.003319">
        <ele>57.0</ele>
        <time>2018-07-06T06:33:08Z</time>
      </trkpt>
      <trkpt lat="37.303489" lon="-6.003135">
        <ele>60.0</ele>
        <time>2018-07-06T06:33:18Z</time>
      </trkpt>
      <trkpt lat="37.303523" lon="-6.002843">
        <ele>58.0</ele>
        <time>2018-07-06T06:33:33Z</time>
      </trkpt>
      <trkpt lat="37.303529" lon="-6.002775">
        <ele>57.0</ele>
        <time>2018-07-06T06:33:37Z</time>
      </trkpt>
      <trkpt lat="37.303529" lon="-6.002775">
        <ele>57.0</ele>
        <time>2018-07-06T06:33:45Z</time>
      </trkpt>
      <trkpt lat="37.303529" lon="-6.002775">
        <ele>57.0</ele>
        <time>2018-07-06T06:33:53Z</time>
      </trkpt>
      <trkpt lat="37.303629" lon="-6.002937">
        <ele>61.0</ele>
        <time>2018-07-06T06:33:53Z</time>
      </trkpt>
      <trkpt lat="37.303761" lon="-6.003098">
        <ele>59.0</ele>
        <time>2018-07-06T06:34:03Z</time>
      </trkpt>
      <trkpt lat="37.303975" lon="-6.003219">
        <ele>60.0</ele>
        <time>2018-07-06T06:34:15Z</time>
      </trkpt>
      <trkpt lat="37.304081" lon="-6.003277">
        <ele>58.0</ele>
        <time>2018-07-06T06:34:23Z</time>
      </trkpt>
      <trkpt lat="37.304146" lon="-6.003319">
        <ele>57.0</ele>
        <time>2018-07-06T06:34:29Z</time>
      </trkpt>
      <trkpt lat="37.304423" lon="-6.003442">
        <ele>57.0</ele>
        <time>2018-07-06T06:34:44Z</time>
      </trkpt>
      <trkpt lat="37.304536" lon="-6.003531">
        <ele>54.0</ele>
        <time>2018-07-06T06:34:52Z</time>
      </trkpt>
      <trkpt lat="37.304636" lon="-6.003566">
        <ele>57.0</ele>
        <time>2018-07-06T06:35:00Z</time>
      </trkpt>
      <trkpt lat="37.30482" lon="-6.003609">
        <ele>54.0</ele>
        <time>2018-07-06T06:35:11Z</time>
      </trkpt>
      <trkpt lat="37.305006" lon="-6.003707">
        <ele>55.0</ele>
        <time>2018-07-06T06:35:25Z</time>
      </trkpt>
      <trkpt lat="37.305163" lon="-6.003806">
        <ele>54.0</ele>
        <time>2018-07-06T06:35:37Z</time>
      </trkpt>
      <trkpt lat="37.305403" lon="-6.003887">
        <ele>54.0</ele>
        <time>2018-07-06T06:35:50Z</time>
      </trkpt>
      <trkpt lat="37.305546" lon="-6.003946">
        <ele>54.0</ele>
        <time>2018-07-06T06:35:59Z</time>
      </trkpt>
      <trkpt lat="37.305719" lon="-6.004056">
        <ele>55.0</ele>
        <time>2018-07-06T06:36:10Z</time>
      </trkpt>
      <trkpt lat="37.305869" lon="-6.004191">
        <ele>57.0</ele>
        <time>2018-07-06T06:36:23Z</time>
      </trkpt>
      <trkpt lat="37.306057" lon="-6.004475">
        <ele>58.0</ele>
        <time>2018-07-06T06:36:42Z</time>
      </trkpt>
      <trkpt lat="37.306138" lon="-6.004717">
        <ele>56.0</ele>
        <time>2018-07-06T06:36:55Z</time>
      </trkpt>
      <trkpt lat="37.306184" lon="-6.004929">
        <ele>56.0</ele>
        <time>2018-07-06T06:37:05Z</time>
      </trkpt>
      <trkpt lat="37.306223" lon="-6.005072">
        <ele>54.0</ele>
        <time>2018-07-06T06:37:14Z</time>
      </trkpt>
      <trkpt lat="37.306239" lon="-6.005431">
        <ele>54.0</ele>
        <time>2018-07-06T06:37:31Z</time>
      </trkpt>
      <trkpt lat="37.306257" lon="-6.005667">
        <ele>56.0</ele>
        <time>2018-07-06T06:37:43Z</time>
      </trkpt>
      <trkpt lat="37.306281" lon="-6.005879">
        <ele>58.0</ele>
        <time>2018-07-06T06:37:53Z</time>
      </trkpt>
      <trkpt lat="37.306328" lon="-6.006059">
        <ele>58.0</ele>
        <time>2018-07-06T06:38:01Z</time>
      </trkpt>
      <trkpt lat="37.306361" lon="-6.006454">
        <ele>57.0</ele>
        <time>2018-07-06T06:38:20Z</time>
      </trkpt>
      <trkpt lat="37.306383" lon="-6.006696">
        <ele>58.0</ele>
        <time>2018-07-06T06:38:32Z</time>
      </trkpt>
      <trkpt lat="37.306384" lon="-6.006878">
        <ele>56.0</ele>
        <time>2018-07-06T06:38:41Z</time>
      </trkpt>
      <trkpt lat="37.306443" lon="-6.007163">
        <ele>56.0</ele>
        <time>2018-07-06T06:38:54Z</time>
      </trkpt>
      <trkpt lat="37.306485" lon="-6.007293">
        <ele>58.0</ele>
        <time>2018-07-06T06:39:02Z</time>
      </trkpt>
      <trkpt lat="37.306505" lon="-6.007487">
        <ele>58.0</ele>
        <time>2018-07-06T06:39:11Z</time>
      </trkpt>
      <trkpt lat="37.306541" lon="-6.007776">
        <ele>59.0</ele>
        <time>2018-07-06T06:39:26Z</time>
      </trkpt>
      <trkpt lat="37.30655" lon="-6.008009">
        <ele>60.0</ele>
        <time>2018-07-06T06:39:37Z</time>
      </trkpt>
      <trkpt lat="37.306564" lon="-6.008177">
        <ele>61.0</ele>
        <time>2018-07-06T06:39:46Z</time>
      </trkpt>
      <trkpt lat="37.306595" lon="-6.008385">
        <ele>60.0</ele>
        <time>2018-07-06T06:39:59Z</time>
      </trkpt>
      <trkpt lat="37.306629" lon="-6.008533">
        <ele>60.0</ele>
        <time>2018-07-06T06:40:04Z</time>
      </trkpt>
      <trkpt lat="37.306659" lon="-6.008714">
        <ele>60.0</ele>
        <time>2018-07-06T06:40:13Z</time>
      </trkpt>
      <trkpt lat="37.306691" lon="-6.008895">
        <ele>61.0</ele>
        <time>2018-07-06T06:40:22Z</time>
      </trkpt>
      <trkpt lat="37.30671" lon="-6.008959">
        <ele>61.0</ele>
        <time>2018-07-06T06:40:24Z</time>
      </trkpt>
      <trkpt lat="37.30671" lon="-6.008959">
        <ele>60.0</ele>
        <time>2018-07-06T06:40:30Z</time>
      </trkpt>
      <trkpt lat="37.30671" lon="-6.008959">
        <ele>60.0</ele>
        <time>2018-07-06T06:40:33Z</time>
      </trkpt>
      <trkpt lat="37.306735" lon="-6.009154">
        <ele>62.0</ele>
        <time>2018-07-06T06:40:33Z</time>
      </trkpt>
      <trkpt lat="37.306739" lon="-6.009258">
        <ele>63.0</ele>
        <time>2018-07-06T06:40:41Z</time>
      </trkpt>
      <trkpt lat="37.306856" lon="-6.009645">
        <ele>62.0</ele>
        <time>2018-07-06T06:40:59Z</time>
      </trkpt>
      <trkpt lat="37.306958" lon="-6.009997">
        <ele>61.0</ele>
        <time>2018-07-06T06:41:17Z</time>
      </trkpt>
      <trkpt lat="37.307084" lon="-6.010329">
        <ele>63.0</ele>
        <time>2018-07-06T06:41:37Z</time>
      </trkpt>
      <trkpt lat="37.307177" lon="-6.010471">
        <ele>63.0</ele>
        <time>2018-07-06T06:41:47Z</time>
      </trkpt>
      <trkpt lat="37.30736" lon="-6.010803">
        <ele>65.0</ele>
        <time>2018-07-06T06:42:08Z</time>
      </trkpt>
      <trkpt lat="37.307561" lon="-6.011075">
        <ele>64.0</ele>
        <time>2018-07-06T06:42:26Z</time>
      </trkpt>
      <trkpt lat="37.307844" lon="-6.011289">
        <ele>62.0</ele>
        <time>2018-07-06T06:42:43Z</time>
      </trkpt>
      <trkpt lat="37.307954" lon="-6.011362">
        <ele>62.0</ele>
        <time>2018-07-06T06:42:50Z</time>
      </trkpt>
      <trkpt lat="37.308027" lon="-6.011433">
        <ele>62.0</ele>
        <time>2018-07-06T06:42:58Z</time>
      </trkpt>
      <trkpt lat="37.308254" lon="-6.011569">
        <ele>58.0</ele>
        <time>2018-07-06T06:43:14Z</time>
      </trkpt>
      <trkpt lat="37.308382" lon="-6.011665">
        <ele>57.0</ele>
        <time>2018-07-06T06:43:24Z</time>
      </trkpt>
      <trkpt lat="37.30854" lon="-6.011792">
        <ele>58.0</ele>
        <time>2018-07-06T06:43:36Z</time>
      </trkpt>
      <trkpt lat="37.308805" lon="-6.01186">
        <ele>59.0</ele>
        <time>2018-07-06T06:43:51Z</time>
      </trkpt>
      <trkpt lat="37.308935" lon="-6.011899">
        <ele>58.0</ele>
        <time>2018-07-06T06:43:59Z</time>
      </trkpt>
      <trkpt lat="37.309097" lon="-6.011934">
        <ele>57.0</ele>
        <time>2018-07-06T06:44:10Z</time>
      </trkpt>
      <trkpt lat="37.309197" lon="-6.011956">
        <ele>59.0</ele>
        <time>2018-07-06T06:44:20Z</time>
      </trkpt>
      <trkpt lat="37.309509" lon="-6.011887">
        <ele>59.0</ele>
        <time>2018-07-06T06:44:37Z</time>
      </trkpt>
      <trkpt lat="37.309703" lon="-6.011833">
        <ele>60.0</ele>
        <time>2018-07-06T06:44:50Z</time>
      </trkpt>
      <trkpt lat="37.310026" lon="-6.011719">
        <ele>60.0</ele>
        <time>2018-07-06T06:45:07Z</time>
      </trkpt>
      <trkpt lat="37.310151" lon="-6.011675">
        <ele>59.0</ele>
        <time>2018-07-06T06:45:14Z</time>
      </trkpt>
      <trkpt lat="37.310238" lon="-6.011656">
        <ele>60.0</ele>
        <time>2018-07-06T06:45:21Z</time>
      </trkpt>
      <trkpt lat="37.310439" lon="-6.011611">
        <ele>61.0</ele>
        <time>2018-07-06T06:45:33Z</time>
      </trkpt>
      <trkpt lat="37.310545" lon="-6.011595">
        <ele>60.0</ele>
        <time>2018-07-06T06:45:42Z</time>
      </trkpt>
      <trkpt lat="37.310755" lon="-6.01153">
        <ele>59.0</ele>
        <time>2018-07-06T06:45:55Z</time>
      </trkpt>
      <trkpt lat="37.310918" lon="-6.011496">
        <ele>59.0</ele>
        <time>2018-07-06T06:46:04Z</time>
      </trkpt>
      <trkpt lat="37.311078" lon="-6.011448">
        <ele>61.0</ele>
        <time>2018-07-06T06:46:14Z</time>
      </trkpt>
      <trkpt lat="37.311201" lon="-6.011417">
        <ele>59.0</ele>
        <time>2018-07-06T06:46:23Z</time>
      </trkpt>
      <trkpt lat="37.311381" lon="-6.011349">
        <ele>61.0</ele>
        <time>2018-07-06T06:46:34Z</time>
      </trkpt>
      <trkpt lat="37.311467" lon="-6.011324">
        <ele>59.0</ele>
        <time>2018-07-06T06:46:37Z</time>
      </trkpt>
      <trkpt lat="37.311595" lon="-6.011287">
        <ele>59.0</ele>
        <time>2018-07-06T06:46:46Z</time>
      </trkpt>
      <trkpt lat="37.311768" lon="-6.011269">
        <ele>61.0</ele>
        <time>2018-07-06T06:46:57Z</time>
      </trkpt>
      <trkpt lat="37.31187" lon="-6.011243">
        <ele>58.0</ele>
        <time>2018-07-06T06:47:05Z</time>
      </trkpt>
      <trkpt lat="37.312018" lon="-6.011206">
        <ele>57.0</ele>
        <time>2018-07-06T06:47:15Z</time>
      </trkpt>
      <trkpt lat="37.312285" lon="-6.01113">
        <ele>58.0</ele>
        <time>2018-07-06T06:47:31Z</time>
      </trkpt>
      <trkpt lat="37.3125" lon="-6.011062">
        <ele>57.0</ele>
        <time>2018-07-06T06:47:44Z</time>
      </trkpt>
      <trkpt lat="37.312654" lon="-6.011045">
        <ele>59.0</ele>
        <time>2018-07-06T06:47:55Z</time>
      </trkpt>
      <trkpt lat="37.312869" lon="-6.01094">
        <ele>57.0</ele>
        <time>2018-07-06T06:48:08Z</time>
      </trkpt>
      <trkpt lat="37.31315" lon="-6.010761">
        <time>2018-07-06T06:48:29Z</time>
      </trkpt>
      <trkpt lat="37.313275" lon="-6.010662">
        <time>2018-07-06T06:48:39Z</time>
      </trkpt>
      <trkpt lat="37.313399" lon="-6.010577">
        <time>2018-07-06T06:48:46Z</time>
      </trkpt>
      <trkpt lat="37.313541" lon="-6.010481">
        <time>2018-07-06T06:48:56Z</time>
      </trkpt>
      <trkpt lat="37.313669" lon="-6.010393">
        <time>2018-07-06T06:49:07Z</time>
      </trkpt>
      <trkpt lat="37.313793" lon="-6.010291">
        <time>2018-07-06T06:49:15Z</time>
      </trkpt>
      <trkpt lat="37.313896" lon="-6.010188">
        <time>2018-07-06T06:49:24Z</time>
      </trkpt>
      <trkpt lat="37.31412" lon="-6.010033">
        <time>2018-07-06T06:49:39Z</time>
      </trkpt>
      <trkpt lat="37.314214" lon="-6.009961">
        <time>2018-07-06T06:49:46Z</time>
      </trkpt>
      <trkpt lat="37.314356" lon="-6.009871">
        <time>2018-07-06T06:49:56Z</time>
      </trkpt>
      <trkpt lat="37.314464" lon="-6.009772">
        <time>2018-07-06T06:50:01Z</time>
      </trkpt>
      <trkpt lat="37.314624" lon="-6.009673">
        <time>2018-07-06T06:50:12Z</time>
      </trkpt>
      <trkpt lat="37.314642" lon="-6.009655">
        <time>2018-07-06T06:50:13Z</time>
      </trkpt>
      <trkpt lat="37.314642" lon="-6.009655">
        <time>2018-07-06T06:50:19Z</time>
      </trkpt>
      <trkpt lat="37.314642" lon="-6.009655">
        <time>2018-07-06T06:50:22Z</time>
      </trkpt>
      <trkpt lat="37.314729" lon="-6.009572">
        <time>2018-07-06T06:50:22Z</time>
      </trkpt>
      <trkpt lat="37.314787" lon="-6.009529">
        <time>2018-07-06T06:50:26Z</time>
      </trkpt>
      <trkpt lat="37.314787" lon="-6.009529">
        <time>2018-07-06T06:50:31Z</time>
      </trkpt>
      <trkpt lat="37.314787" lon="-6.009529">
        <time>2018-07-06T06:50:34Z</time>
      </trkpt>
      <trkpt lat="37.314899" lon="-6.009424">
        <time>2018-07-06T06:50:34Z</time>
      </trkpt>
      <trkpt lat="37.314935" lon="-6.009381">
        <time>2018-07-06T06:50:36Z</time>
      </trkpt>
      <trkpt lat="37.314935" lon="-6.009381">
        <time>2018-07-06T06:50:42Z</time>
      </trkpt>
      <trkpt lat="37.314935" lon="-6.009381">
        <time>2018-07-06T06:50:45Z</time>
      </trkpt>
      <trkpt lat="37.315078" lon="-6.009222">
        <time>2018-07-06T06:50:52Z</time>
      </trkpt>
      <trkpt lat="37.315192" lon="-6.00907">
        <time>2018-07-06T06:51:04Z</time>
      </trkpt>
      <trkpt lat="37.315339" lon="-6.008621">
        <time>2018-07-06T06:51:25Z</time>
      </trkpt>
      <trkpt lat="37.315436" lon="-6.008271">
        <time>2018-07-06T06:51:41Z</time>
      </trkpt>
      <trkpt lat="37.31549" lon="-6.008131">
        <time>2018-07-06T06:51:50Z</time>
      </trkpt>
      <trkpt lat="37.315531" lon="-6.00792">
        <time>2018-07-06T06:52:01Z</time>
      </trkpt>
      <trkpt lat="37.315551" lon="-6.007714">
        <time>2018-07-06T06:52:09Z</time>
      </trkpt>
      <trkpt lat="37.315551" lon="-6.007714">
        <time>2018-07-06T06:52:15Z</time>
      </trkpt>
      <trkpt lat="37.315551" lon="-6.007714">
        <time>2018-07-06T06:52:21Z</time>
      </trkpt>
      <trkpt lat="37.31559" lon="-6.007571">
        <time>2018-07-06T06:52:21Z</time>
      </trkpt>
      <trkpt lat="37.315598" lon="-6.007271">
        <time>2018-07-06T06:52:35Z</time>
      </trkpt>
      <trkpt lat="37.315579" lon="-6.007174">
        <time>2018-07-06T06:52:41Z</time>
      </trkpt>
      <trkpt lat="37.315539" lon="-6.006919">
        <time>2018-07-06T06:52:53Z</time>
      </trkpt>
      <trkpt lat="37.315468" lon="-6.006723">
        <time>2018-07-06T06:53:04Z</time>
      </trkpt>
      <trkpt lat="37.315468" lon="-6.006723">
        <time>2018-07-06T06:53:18Z</time>
      </trkpt>
      <trkpt lat="37.315468" lon="-6.006723">
        <time>2018-07-06T06:53:18Z</time>
      </trkpt>
      <trkpt lat="37.315204" lon="-6.006161">
        <ele>58.0</ele>
        <time>2018-07-06T06:53:41Z</time>
      </trkpt>
      <trkpt lat="37.315204" lon="-6.006161">
        <ele>57.0</ele>
        <time>2018-07-06T06:53:42Z</time>
      </trkpt>
      <trkpt lat="37.315133" lon="-6.006005">
        <ele>56.0</ele>
        <time>2018-07-06T06:53:50Z</time>
      </trkpt>
      <trkpt lat="37.315093" lon="-6.005839">
        <ele>55.0</ele>
        <time>2018-07-06T06:53:58Z</time>
      </trkpt>
      <trkpt lat="37.315032" lon="-6.005722">
        <ele>50.0</ele>
        <time>2018-07-06T06:54:05Z</time>
      </trkpt>
      <trkpt lat="37.314895" lon="-6.00548">
        <ele>52.0</ele>
        <time>2018-07-06T06:54:21Z</time>
      </trkpt>
      <trkpt lat="37.314779" lon="-6.00514">
        <ele>55.0</ele>
        <time>2018-07-06T06:54:39Z</time>
      </trkpt>
      <trkpt lat="37.314711" lon="-6.004933">
        <ele>54.0</ele>
        <time>2018-07-06T06:54:48Z</time>
      </trkpt>
      <trkpt lat="37.314661" lon="-6.004855">
        <ele>57.0</ele>
        <time>2018-07-06T06:54:55Z</time>
      </trkpt>
      <trkpt lat="37.314532" lon="-6.004497">
        <ele>57.0</ele>
        <time>2018-07-06T06:55:12Z</time>
      </trkpt>
      <trkpt lat="37.314532" lon="-6.004497">
        <ele>56.0</ele>
        <time>2018-07-06T06:55:18Z</time>
      </trkpt>
      <trkpt lat="37.314532" lon="-6.004497">
        <ele>53.0</ele>
        <time>2018-07-06T06:55:18Z</time>
      </trkpt>
      <trkpt lat="37.314532" lon="-6.004497">
        <ele>54.0</ele>
        <time>2018-07-06T06:55:23Z</time>
      </trkpt>
      <trkpt lat="37.314413" lon="-6.004258">
        <ele>55.0</ele>
        <time>2018-07-06T06:55:26Z</time>
      </trkpt>
      <trkpt lat="37.314413" lon="-6.004258">
        <ele>53.0</ele>
        <time>2018-07-06T06:55:32Z</time>
      </trkpt>
      <trkpt lat="37.314413" lon="-6.004258">
        <ele>55.0</ele>
        <time>2018-07-06T06:55:36Z</time>
      </trkpt>
      <trkpt lat="37.314356" lon="-6.004113">
        <ele>58.0</ele>
        <time>2018-07-06T06:55:36Z</time>
      </trkpt>
      <trkpt lat="37.314305" lon="-6.003937">
        <ele>58.0</ele>
        <time>2018-07-06T06:55:46Z</time>
      </trkpt>
      <trkpt lat="37.314219" lon="-6.003811">
        <ele>56.0</ele>
        <time>2018-07-06T06:55:53Z</time>
      </trkpt>
      <trkpt lat="37.314127" lon="-6.003616">
        <ele>55.0</ele>
        <time>2018-07-06T06:56:02Z</time>
      </trkpt>
      <trkpt lat="37.314026" lon="-6.003399">
        <ele>51.0</ele>
        <time>2018-07-06T06:56:20Z</time>
      </trkpt>
      <trkpt lat="37.313898" lon="-6.003136">
        <ele>53.0</ele>
        <time>2018-07-06T06:56:34Z</time>
      </trkpt>
      <trkpt lat="37.313848" lon="-6.003013">
        <ele>59.0</ele>
        <time>2018-07-06T06:56:41Z</time>
      </trkpt>
      <trkpt lat="37.31376" lon="-6.002729">
        <ele>57.0</ele>
        <time>2018-07-06T06:56:56Z</time>
      </trkpt>
      <trkpt lat="37.313659" lon="-6.002359">
        <ele>59.0</ele>
        <time>2018-07-06T06:57:12Z</time>
      </trkpt>
      <trkpt lat="37.313669" lon="-6.002267">
        <ele>58.0</ele>
        <time>2018-07-06T06:57:18Z</time>
      </trkpt>
      <trkpt lat="37.313821" lon="-6.002147">
        <ele>59.0</ele>
        <time>2018-07-06T06:57:33Z</time>
      </trkpt>
      <trkpt lat="37.313959" lon="-6.002006">
        <ele>59.0</ele>
        <time>2018-07-06T06:57:41Z</time>
      </trkpt>
      <trkpt lat="37.314197" lon="-6.001981">
        <ele>54.0</ele>
        <time>2018-07-06T06:57:56Z</time>
      </trkpt>
      <trkpt lat="37.314396" lon="-6.002017">
        <time>2018-07-06T06:58:09Z</time>
      </trkpt>
      <trkpt lat="37.314491" lon="-6.002074">
        <time>2018-07-06T06:58:18Z</time>
      </trkpt>
      <trkpt lat="37.31468" lon="-6.002125">
        <time>2018-07-06T06:58:30Z</time>
      </trkpt>
      <trkpt lat="37.314913" lon="-6.002233">
        <time>2018-07-06T06:58:46Z</time>
      </trkpt>
      <trkpt lat="37.315147" lon="-6.002362">
        <time>2018-07-06T06:59:01Z</time>
      </trkpt>
      <trkpt lat="37.315147" lon="-6.002362">
        <time>2018-07-06T06:59:12Z</time>
      </trkpt>
      <trkpt lat="37.315147" lon="-6.002362">
        <time>2018-07-06T06:59:12Z</time>
      </trkpt>
    </trkseg>
  </trk>
</gpx>
